Hollandale, Minnesota
Current Conditions -  °F | °C
As of 6:11 AM on Friday 19 Dec 2014 (Local Time) from KAEL Reporting Station
Overcast Overcast  
Wind Chill: 25°   Ceiling: 2100
Heat Index: 25°   Visibility: 7mi
Dew Point: 21°   Wind: 3mph
Humidity: 86%   Direction: 170°S
Pressure: 30.23"   Gusts: NA
Location:  43.76°N, 93.2°W
Report Text: KAEL 191211Z AUTO 17003KT 7SM OVC021 M04/M06 A3023 RMK AO2
Loading
Personal Weather Stations






























Interactive Weather Map New forecast layout! Learn more

10-Day Weather Forecast

Advertisements
Track Severe Weather on mobile